sensor_id;sensor_type;location;lat;lon;timestamp;temperature;humidity
64951;DHT22;51482;47.014;7.652;2024-01-06T00:00:30;6.00;99.90
64951;DHT22;51482;47.014;7.652;2024-01-06T00:02:55;6.50;99.90
64951;DHT22;51482;47.014;7.652;2024-01-06T00:05:21;6.10;99.90
64951;DHT22;51482;47.014;7.652;2024-01-06T00:07:46;6.20;99.90
64951;DHT22;51482;47.014;7.652;2024-01-06T00:10:12;6.50;99.90
64951;DHT22;51482;47.014;7.652;2024-01-06T00:12:38;5.90;99.90
64951;DHT22;51482;47.014;7.652;2024-01-06T00:15:04;5.90;99.90
64951;DHT22;51482;47.014;7.652;2024-01-06T00:17:29;5.90;99.90
64951;DHT22;51482;47.014;7.652;2024-01-06T00:19:55;5.80;99.90
64951;DHT22;51482;47.014;7.652;2024-01-06T00:22:21;5.90;99.90
64951;DHT22;51482;47.014;7.652;2024-01-06T00:24:46;5.70;99.90
64951;DHT22;51482;47.014;7.652;2024-01-06T00:27:12;5.70;99.90
64951;DHT22;51482;47.014;7.652;2024-01-06T00:29:39;6.10;99.90
64951;DHT22;51482;47.014;7.652;2024-01-06T00:32:05;5.80;99.90
64951;DHT22;51482;47.014;7.652;2024-01-06T00:34:30;5.90;99.90
64951;DHT22;51482;47.014;7.652;2024-01-06T00:36:56;6.10;99.90
64951;DHT22;51482;47.014;7.652;2024-01-06T00:39:21;5.60;99.90
64951;DHT22;51482;47.014;7.652;2024-01-06T00:41:47;6.20;99.90
64951;DHT22;51482;47.014;7.652;2024-01-06T00:44:12;5.70;99.90
64951;DHT22;51482;47.014;7.652;2024-01-06T00:46:39;5.60;99.90
64951;DHT22;51482;47.014;7.652;2024-01-06T00:49:04;6.10;99.90
64951;DHT22;51482;47.014;7.652;2024-01-06T00:51:30;5.60;99.90
64951;DHT22;51482;47.014;7.652;2024-01-06T00:53:55;5.80;99.90
64951;DHT22;51482;47.014;7.652;2024-01-06T00:56:22;5.60;99.90
64951;DHT22;51482;47.014;7.652;2024-01-06T00:58:47;6.10;99.90
64951;DHT22;51482;47.014;7.652;2024-01-06T01:01:13;5.50;99.90
64951;DHT22;51482;47.014;7.652;2024-01-06T01:03:38;5.90;99.90
64951;DHT22;51482;47.014;7.652;2024-01-06T01:06:04;4.80;99.90
64951;DHT22;51482;47.014;7.652;2024-01-06T01:08:29;5.70;99.90
64951;DHT22;51482;47.014;7.652;2024-01-06T01:10:56;5.40;99.90
64951;DHT22;51482;47.014;7.652;2024-01-06T01:13:22;6.00;99.90
64951;DHT22;51482;47.014;7.652;2024-01-06T01:15:48;5.40;99.90
64951;DHT22;51482;47.014;7.652;2024-01-06T01:18:14;5.30;99.90
64951;DHT22;51482;47.014;7.652;2024-01-06T01:20:39;5.40;99.90
64951;DHT22;51482;47.014;7.652;2024-01-06T01:23:07;5.90;99.90
64951;DHT22;51482;47.014;7.652;2024-01-06T01:25:33;5.40;99.90
64951;DHT22;51482;47.014;7.652;2024-01-06T01:27:59;5.30;99.90
64951;DHT22;51482;47.014;7.652;2024-01-06T01:30:24;5.70;99.90
64951;DHT22;51482;47.014;7.652;2024-01-06T01:32:50;6.10;99.90
64951;DHT22;51482;47.014;7.652;2024-01-06T01:35:15;5.90;99.90
64951;DHT22;51482;47.014;7.652;2024-01-06T01:37:41;5.40;99.90
64951;DHT22;51482;47.014;7.652;2024-01-06T01:40:07;5.50;99.90
64951;DHT22;51482;47.014;7.652;2024-01-06T01:42:33;5.50;99.90
64951;DHT22;51482;47.014;7.652;2024-01-06T01:44:59;5.50;99.90
64951;DHT22;51482;47.014;7.652;2024-01-06T01:47:25;5.40;99.90
64951;DHT22;51482;47.014;7.652;2024-01-06T01:49:52;6.00;99.90
64951;DHT22;51482;47.014;7.652;2024-01-06T01:52:18;5.20;99.90
64951;DHT22;51482;47.014;7.652;2024-01-06T01:54:45;5.40;99.90
64951;DHT22;51482;47.014;7.652;2024-01-06T01:57:11;5.90;99.90
64951;DHT22;51482;47.014;7.652;2024-01-06T01:59:38;6.00;99.90
64951;DHT22;51482;47.014;7.652;2024-01-06T02:02:04;5.20;99.90
64951;DHT22;51482;47.014;7.652;2024-01-06T02:04:29;5.60;99.90
64951;DHT22;51482;47.014;7.652;2024-01-06T02:06:55;5.70;99.90
64951;DHT22;51482;47.014;7.652;2024-01-06T02:09:20;5.80;99.90
64951;DHT22;51482;47.014;7.652;2024-01-06T02:11:48;5.90;99.90
64951;DHT22;51482;47.014;7.652;2024-01-06T02:14:14;6.00;99.90
64951;DHT22;51482;47.014;7.652;2024-01-06T02:16:40;5.80;99.90
64951;DHT22;51482;47.014;7.652;2024-01-06T02:19:07;5.00;99.90
64951;DHT22;51482;47.014;7.652;2024-01-06T02:21:35;6.00;99.90
64951;DHT22;51482;47.014;7.652;2024-01-06T02:24:04;5.70;99.90
64951;DHT22;51482;47.014;7.652;2024-01-06T02:26:30;5.30;99.90
64951;DHT22;51482;47.014;7.652;2024-01-06T02:28:56;5.60;99.90
64951;DHT22;51482;47.014;7.652;2024-01-06T02:31:21;5.70;99.90
64951;DHT22;51482;47.014;7.652;2024-01-06T02:33:47;5.80;99.90
64951;DHT22;51482;47.014;7.652;2024-01-06T02:36:12;5.30;99.90
64951;DHT22;51482;47.014;7.652;2024-01-06T02:38:38;5.60;99.90
64951;DHT22;51482;47.014;7.652;2024-01-06T02:41:03;5.10;99.90
64951;DHT22;51482;47.014;7.652;2024-01-06T02:43:29;5.60;99.90
64951;DHT22;51482;47.014;7.652;2024-01-06T02:45:54;5.50;99.90
64951;DHT22;51482;47.014;7.652;2024-01-06T02:48:20;5.10;99.90
64951;DHT22;51482;47.014;7.652;2024-01-06T02:50:45;5.20;99.90
64951;DHT22;51482;47.014;7.652;2024-01-06T02:53:11;4.60;99.90
64951;DHT22;51482;47.014;7.652;2024-01-06T02:55:38;4.70;99.90
64951;DHT22;51482;47.014;7.652;2024-01-06T02:58:03;5.80;99.90
64951;DHT22;51482;47.014;7.652;2024-01-06T03:00:29;5.40;99.90
64951;DHT22;51482;47.014;7.652;2024-01-06T03:02:55;4.70;99.90
64951;DHT22;51482;47.014;7.652;2024-01-06T03:05:20;5.00;99.90
64951;DHT22;51482;47.014;7.652;2024-01-06T03:07:46;4.80;99.90
64951;DHT22;51482;47.014;7.652;2024-01-06T03:10:11;5.70;99.90
64951;DHT22;51482;47.014;7.652;2024-01-06T03:12:37;5.80;99.90
64951;DHT22;51482;47.014;7.652;2024-01-06T03:15:02;5.70;99.90
64951;DHT22;51482;47.014;7.652;2024-01-06T03:17:28;5.30;99.90
64951;DHT22;51482;47.014;7.652;2024-01-06T03:19:54;5.70;99.90
64951;DHT22;51482;47.014;7.652;2024-01-06T03:22:20;5.30;99.90
64951;DHT22;51482;47.014;7.652;2024-01-06T03:24:45;5.60;99.90
64951;DHT22;51482;47.014;7.652;2024-01-06T03:27:11;5.40;99.90
64951;DHT22;51482;47.014;7.652;2024-01-06T03:29:38;5.20;99.90
64951;DHT22;51482;47.014;7.652;2024-01-06T03:32:03;4.80;99.90
64951;DHT22;51482;47.014;7.652;2024-01-06T03:34:29;5.20;99.90
64951;DHT22;51482;47.014;7.652;2024-01-06T03:36:54;5.30;99.90
64951;DHT22;51482;47.014;7.652;2024-01-06T03:39:20;5.70;99.90
64951;DHT22;51482;47.014;7.652;2024-01-06T03:41:45;5.00;99.90
64951;DHT22;51482;47.014;7.652;2024-01-06T03:44:11;5.80;99.90
64951;DHT22;51482;47.014;7.652;2024-01-06T03:46:37;5.10;99.90
64951;DHT22;51482;47.014;7.652;2024-01-06T03:49:03;5.60;99.90
64951;DHT22;51482;47.014;7.652;2024-01-06T03:51:29;5.60;99.90
64951;DHT22;51482;47.014;7.652;2024-01-06T03:53:54;5.50;99.90
64951;DHT22;51482;47.014;7.652;2024-01-06T03:56:20;5.00;99.90
64951;DHT22;51482;47.014;7.652;2024-01-06T03:58:46;4.40;99.90
64951;DHT22;51482;47.014;7.652;2024-01-06T04:01:14;5.20;99.90
64951;DHT22;51482;47.014;7.652;2024-01-06T04:03:40;5.10;99.90
64951;DHT22;51482;47.014;7.652;2024-01-06T04:06:06;5.30;99.90
64951;DHT22;51482;47.014;7.652;2024-01-06T04:08:32;5.60;99.90
64951;DHT22;51482;47.014;7.652;2024-01-06T04:10:57;5.20;99.90
64951;DHT22;51482;47.014;7.652;2024-01-06T04:13:23;4.80;99.90
64951;DHT22;51482;47.014;7.652;2024-01-06T04:15:50;4.90;99.90
64951;DHT22;51482;47.014;7.652;2024-01-06T04:18:16;5.40;99.90
64951;DHT22;51482;47.014;7.652;2024-01-06T04:20:41;5.20;99.90
64951;DHT22;51482;47.014;7.652;2024-01-06T04:23:07;5.40;99.90
64951;DHT22;51482;47.014;7.652;2024-01-06T04:25:33;5.30;99.90
64951;DHT22;51482;47.014;7.652;2024-01-06T04:27:58;4.80;99.90
64951;DHT22;51482;47.014;7.652;2024-01-06T04:30:24;5.30;99.90
64951;DHT22;51482;47.014;7.652;2024-01-06T04:32:51;5.00;99.90
64951;DHT22;51482;47.014;7.652;2024-01-06T04:35:16;4.40;99.90
64951;DHT22;51482;47.014;7.652;2024-01-06T04:37:42;4.30;99.90
64951;DHT22;51482;47.014;7.652;2024-01-06T04:40:08;5.20;99.90
64951;DHT22;51482;47.014;7.652;2024-01-06T04:42:33;4.50;99.90
64951;DHT22;51482;47.014;7.652;2024-01-06T04:44:59;4.80;99.90
64951;DHT22;51482;47.014;7.652;2024-01-06T04:47:25;4.80;99.90
64951;DHT22;51482;47.014;7.652;2024-01-06T04:49:50;4.10;99.90
64951;DHT22;51482;47.014;7.652;2024-01-06T04:52:16;3.80;99.90
64951;DHT22;51482;47.014;7.652;2024-01-06T04:54:41;4.20;99.90
64951;DHT22;51482;47.014;7.652;2024-01-06T04:57:07;4.30;99.90
64951;DHT22;51482;47.014;7.652;2024-01-06T04:59:32;4.20;99.90
64951;DHT22;51482;47.014;7.652;2024-01-06T05:01:58;4.40;99.90
64951;DHT22;51482;47.014;7.652;2024-01-06T05:04:24;4.10;99.90
64951;DHT22;51482;47.014;7.652;2024-01-06T05:06:51;4.60;99.90
64951;DHT22;51482;47.014;7.652;2024-01-06T05:09:17;4.10;99.90
64951;DHT22;51482;47.014;7.652;2024-01-06T05:11:45;4.60;99.90
64951;DHT22;51482;47.014;7.652;2024-01-06T05:14:11;4.20;99.90
64951;DHT22;51482;47.014;7.652;2024-01-06T05:16:37;4.30;99.90
64951;DHT22;51482;47.014;7.652;2024-01-06T05:19:03;4.50;99.90
64951;DHT22;51482;47.014;7.652;2024-01-06T05:21:29;4.50;99.90
64951;DHT22;51482;47.014;7.652;2024-01-06T05:23:55;4.50;99.90
64951;DHT22;51482;47.014;7.652;2024-01-06T05:26:20;4.50;99.90
64951;DHT22;51482;47.014;7.652;2024-01-06T05:28:46;3.40;99.90
64951;DHT22;51482;47.014;7.652;2024-01-06T05:31:12;4.00;99.90
64951;DHT22;51482;47.014;7.652;2024-01-06T05:33:37;4.60;99.90
64951;DHT22;51482;47.014;7.652;2024-01-06T05:36:03;3.70;99.90
64951;DHT22;51482;47.014;7.652;2024-01-06T05:38:28;4.00;99.90
64951;DHT22;51482;47.014;7.652;2024-01-06T05:40:54;4.00;99.90
64951;DHT22;51482;47.014;7.652;2024-01-06T05:43:20;4.30;99.90
64951;DHT22;51482;47.014;7.652;2024-01-06T05:45:45;3.90;99.90
64951;DHT22;51482;47.014;7.652;2024-01-06T05:48:11;4.00;99.90
64951;DHT22;51482;47.014;7.652;2024-01-06T05:50:38;4.60;99.90
64951;DHT22;51482;47.014;7.652;2024-01-06T05:53:05;3.50;99.90
64951;DHT22;51482;47.014;7.652;2024-01-06T05:55:31;4.20;99.90
64951;DHT22;51482;47.014;7.652;2024-01-06T05:57:56;3.50;99.90
64951;DHT22;51482;47.014;7.652;2024-01-06T06:00:22;4.10;99.90
64951;DHT22;51482;47.014;7.652;2024-01-06T06:02:48;3.90;99.90
64951;DHT22;51482;47.014;7.652;2024-01-06T06:05:14;4.50;99.90
64951;DHT22;51482;47.014;7.652;2024-01-06T06:07:39;3.50;99.90
64951;DHT22;51482;47.014;7.652;2024-01-06T06:10:09;4.40;99.90
64951;DHT22;51482;47.014;7.652;2024-01-06T06:12:35;4.60;99.90
64951;DHT22;51482;47.014;7.652;2024-01-06T06:15:01;4.30;99.90
64951;DHT22;51482;47.014;7.652;2024-01-06T06:17:29;4.20;99.90
64951;DHT22;51482;47.014;7.652;2024-01-06T06:19:54;4.20;99.90
64951;DHT22;51482;47.014;7.652;2024-01-06T06:22:20;4.00;99.90
64951;DHT22;51482;47.014;7.652;2024-01-06T06:24:47;4.10;99.90
64951;DHT22;51482;47.014;7.652;2024-01-06T06:27:12;4.40;99.90
64951;DHT22;51482;47.014;7.652;2024-01-06T06:29:38;4.10;99.90
64951;DHT22;51482;47.014;7.652;2024-01-06T06:32:03;4.00;99.90
64951;DHT22;51482;47.014;7.652;2024-01-06T06:34:29;4.20;99.90
64951;DHT22;51482;47.014;7.652;2024-01-06T06:36:54;4.60;99.90
64951;DHT22;51482;47.014;7.652;2024-01-06T06:39:20;4.50;99.90
64951;DHT22;51482;47.014;7.652;2024-01-06T06:41:45;3.40;99.90
64951;DHT22;51482;47.014;7.652;2024-01-06T06:44:11;4.20;99.90
64951;DHT22;51482;47.014;7.652;2024-01-06T06:46:37;4.20;99.90
64951;DHT22;51482;47.014;7.652;2024-01-06T06:49:02;4.30;99.90
64951;DHT22;51482;47.014;7.652;2024-01-06T06:51:28;3.80;99.90
64951;DHT22;51482;47.014;7.652;2024-01-06T06:53:55;4.00;99.90
64951;DHT22;51482;47.014;7.652;2024-01-06T06:56:21;4.00;99.90
64951;DHT22;51482;47.014;7.652;2024-01-06T06:58:46;4.30;99.90
64951;DHT22;51482;47.014;7.652;2024-01-06T07:01:14;3.70;99.90
64951;DHT22;51482;47.014;7.652;2024-01-06T07:03:40;4.00;99.90
64951;DHT22;51482;47.014;7.652;2024-01-06T07:06:06;4.00;99.90
64951;DHT22;51482;47.014;7.652;2024-01-06T07:08:31;3.80;99.90
64951;DHT22;51482;47.014;7.652;2024-01-06T07:10:57;3.50;99.90
64951;DHT22;51482;47.014;7.652;2024-01-06T07:13:22;4.30;99.90
64951;DHT22;51482;47.014;7.652;2024-01-06T07:15:48;3.70;99.90
64951;DHT22;51482;47.014;7.652;2024-01-06T07:18:13;4.40;99.90
64951;DHT22;51482;47.014;7.652;2024-01-06T07:20:39;4.10;99.90
64951;DHT22;51482;47.014;7.652;2024-01-06T07:23:04;4.50;99.90
64951;DHT22;51482;47.014;7.652;2024-01-06T07:25:30;4.30;99.90
64951;DHT22;51482;47.014;7.652;2024-01-06T07:27:56;4.70;99.90
64951;DHT22;51482;47.014;7.652;2024-01-06T07:30:21;4.10;99.90
64951;DHT22;51482;47.014;7.652;2024-01-06T07:32:47;3.70;99.90
64951;DHT22;51482;47.014;7.652;2024-01-06T07:35:14;3.70;99.90
64951;DHT22;51482;47.014;7.652;2024-01-06T07:37:41;3.50;99.90
64951;DHT22;51482;47.014;7.652;2024-01-06T07:40:07;4.40;99.90
64951;DHT22;51482;47.014;7.652;2024-01-06T07:42:33;4.00;99.90
64951;DHT22;51482;47.014;7.652;2024-01-06T07:44:58;4.20;99.90
64951;DHT22;51482;47.014;7.652;2024-01-06T07:47:24;4.20;99.90
64951;DHT22;51482;47.014;7.652;2024-01-06T07:49:50;3.90;99.90
64951;DHT22;51482;47.014;7.652;2024-01-06T07:52:16;4.00;99.90
64951;DHT22;51482;47.014;7.652;2024-01-06T07:54:42;3.90;99.90
64951;DHT22;51482;47.014;7.652;2024-01-06T07:57:07;4.50;99.90
64951;DHT22;51482;47.014;7.652;2024-01-06T07:59:33;4.20;99.90
64951;DHT22;51482;47.014;7.652;2024-01-06T08:01:58;4.20;99.90
64951;DHT22;51482;47.014;7.652;2024-01-06T08:04:24;4.10;99.90
64951;DHT22;51482;47.014;7.652;2024-01-06T08:06:50;3.90;99.90
64951;DHT22;51482;47.014;7.652;2024-01-06T08:09:15;3.90;99.90
64951;DHT22;51482;47.014;7.652;2024-01-06T08:11:41;3.60;99.90
64951;DHT22;51482;47.014;7.652;2024-01-06T08:14:08;4.50;99.90
64951;DHT22;51482;47.014;7.652;2024-01-06T08:16:33;4.50;99.90
64951;DHT22;51482;47.014;7.652;2024-01-06T08:18:59;3.70;99.90
64951;DHT22;51482;47.014;7.652;2024-01-06T08:21:25;4.30;99.90
64951;DHT22;51482;47.014;7.652;2024-01-06T08:23:50;4.60;99.90
64951;DHT22;51482;47.014;7.652;2024-01-06T08:26:16;3.50;99.90
64951;DHT22;51482;47.014;7.652;2024-01-06T08:28:41;3.50;99.90
64951;DHT22;51482;47.014;7.652;2024-01-06T08:31:07;3.80;99.90
64951;DHT22;51482;47.014;7.652;2024-01-06T08:33:32;4.20;99.90
64951;DHT22;51482;47.014;7.652;2024-01-06T08:35:58;4.10;99.90
64951;DHT22;51482;47.014;7.652;2024-01-06T08:38:24;3.40;99.90
64951;DHT22;51482;47.014;7.652;2024-01-06T08:40:49;4.30;99.90
64951;DHT22;51482;47.014;7.652;2024-01-06T08:43:16;3.70;99.90
64951;DHT22;51482;47.014;7.652;2024-01-06T08:45:41;4.10;99.90
64951;DHT22;51482;47.014;7.652;2024-01-06T08:48:07;4.50;99.90
64951;DHT22;51482;47.014;7.652;2024-01-06T08:50:33;4.70;99.90
64951;DHT22;51482;47.014;7.652;2024-01-06T08:52:58;4.50;99.90
64951;DHT22;51482;47.014;7.652;2024-01-06T08:55:24;4.50;99.90
64951;DHT22;51482;47.014;7.652;2024-01-06T08:57:50;4.90;99.90
64951;DHT22;51482;47.014;7.652;2024-01-06T09:00:16;4.60;99.90
64951;DHT22;51482;47.014;7.652;2024-01-06T09:02:42;4.30;99.90
64951;DHT22;51482;47.014;7.652;2024-01-06T09:05:08;4.40;99.90
64951;DHT22;51482;47.014;7.652;2024-01-06T09:07:33;5.10;99.90
64951;DHT22;51482;47.014;7.652;2024-01-06T09:09:59;4.60;99.90
64951;DHT22;51482;47.014;7.652;2024-01-06T09:12:24;4.70;99.90
64951;DHT22;51482;47.014;7.652;2024-01-06T09:14:50;4.50;99.90
64951;DHT22;51482;47.014;7.652;2024-01-06T09:17:16;5.00;99.90
64951;DHT22;51482;47.014;7.652;2024-01-06T09:19:41;4.30;99.90
64951;DHT22;51482;47.014;7.652;2024-01-06T09:22:07;4.80;99.90
64951;DHT22;51482;47.014;7.652;2024-01-06T09:24:32;4.70;99.90
64951;DHT22;51482;47.014;7.652;2024-01-06T09:26:59;4.80;99.90
64951;DHT22;51482;47.014;7.652;2024-01-06T09:29:24;4.60;99.90
64951;DHT22;51482;47.014;7.652;2024-01-06T09:31:50;4.80;99.90
64951;DHT22;51482;47.014;7.652;2024-01-06T09:34:16;5.30;99.90
64951;DHT22;51482;47.014;7.652;2024-01-06T09:36:41;4.40;99.90
64951;DHT22;51482;47.014;7.652;2024-01-06T09:39:07;4.90;99.90
64951;DHT22;51482;47.014;7.652;2024-01-06T09:41:33;5.10;99.90
64951;DHT22;51482;47.014;7.652;2024-01-06T09:43:59;4.90;99.90
64951;DHT22;51482;47.014;7.652;2024-01-06T09:46:26;5.50;99.90
64951;DHT22;51482;47.014;7.652;2024-01-06T09:48:52;5.00;99.90
64951;DHT22;51482;47.014;7.652;2024-01-06T09:51:19;5.40;99.90
64951;DHT22;51482;47.014;7.652;2024-01-06T09:53:52;5.00;99.90
64951;DHT22;51482;47.014;7.652;2024-01-06T09:56:20;4.50;99.90
64951;DHT22;51482;47.014;7.652;2024-01-06T09:58:46;5.70;99.90
64951;DHT22;51482;47.014;7.652;2024-01-06T10:01:11;5.00;99.90
64951;DHT22;51482;47.014;7.652;2024-01-06T10:03:38;5.20;99.90
64951;DHT22;51482;47.014;7.652;2024-01-06T10:06:03;5.60;99.90
64951;DHT22;51482;47.014;7.652;2024-01-06T10:08:32;5.20;99.90
64951;DHT22;51482;47.014;7.652;2024-01-06T10:10:59;4.70;99.90
64951;DHT22;51482;47.014;7.652;2024-01-06T10:13:25;5.20;99.90
64951;DHT22;51482;47.014;7.652;2024-01-06T10:15:51;4.70;99.90
64951;DHT22;51482;47.014;7.652;2024-01-06T10:18:16;5.90;99.90
64951;DHT22;51482;47.014;7.652;2024-01-06T10:20:44;5.40;99.90
64951;DHT22;51482;47.014;7.652;2024-01-06T10:23:10;6.00;99.90
64951;DHT22;51482;47.014;7.652;2024-01-06T10:25:36;5.10;99.90
64951;DHT22;51482;47.014;7.652;2024-01-06T10:28:02;5.70;99.90
64951;DHT22;51482;47.014;7.652;2024-01-06T10:30:28;5.70;99.90
64951;DHT22;51482;47.014;7.652;2024-01-06T10:32:54;5.70;99.90
64951;DHT22;51482;47.014;7.652;2024-01-06T10:35:20;5.10;99.90
64951;DHT22;51482;47.014;7.652;2024-01-06T10:37:46;5.10;99.90
64951;DHT22;51482;47.014;7.652;2024-01-06T10:40:16;6.30;99.90
64951;DHT22;51482;47.014;7.652;2024-01-06T10:42:42;5.60;99.90
64951;DHT22;51482;47.014;7.652;2024-01-06T10:45:10;5.90;99.90
64951;DHT22;51482;47.014;7.652;2024-01-06T10:47:37;5.90;99.90
64951;DHT22;51482;47.014;7.652;2024-01-06T10:50:03;5.70;99.90
64951;DHT22;51482;47.014;7.652;2024-01-06T10:52:29;5.50;99.90
64951;DHT22;51482;47.014;7.652;2024-01-06T10:54:55;6.00;99.90
64951;DHT22;51482;47.014;7.652;2024-01-06T10:57:21;6.40;99.90
64951;DHT22;51482;47.014;7.652;2024-01-06T10:59:50;6.30;99.90
64951;DHT22;51482;47.014;7.652;2024-01-06T11:02:16;6.30;99.90
64951;DHT22;51482;47.014;7.652;2024-01-06T11:04:44;5.80;99.90
64951;DHT22;51482;47.014;7.652;2024-01-06T11:07:11;6.30;99.90
64951;DHT22;51482;47.014;7.652;2024-01-06T11:09:39;6.30;99.90
64951;DHT22;51482;47.014;7.652;2024-01-06T11:12:06;6.10;99.90
64951;DHT22;51482;47.014;7.652;2024-01-06T11:14:37;5.90;99.90
64951;DHT22;51482;47.014;7.652;2024-01-06T11:17:03;6.40;99.90
64951;DHT22;51482;47.014;7.652;2024-01-06T11:22:29;5.70;99.90
64951;DHT22;51482;47.014;7.652;2024-01-06T11:25:04;6.20;99.90
64951;DHT22;51482;47.014;7.652;2024-01-06T11:27:30;6.10;99.90
64951;DHT22;51482;47.014;7.652;2024-01-06T11:29:57;6.00;99.90
64951;DHT22;51482;47.014;7.652;2024-01-06T11:34:55;6.10;99.90
64951;DHT22;51482;47.014;7.652;2024-01-06T11:37:50;6.70;99.90
64951;DHT22;51482;47.014;7.652;2024-01-06T11:45:27;6.30;99.90
64951;DHT22;51482;47.014;7.652;2024-01-06T11:48:04;5.80;99.90
64951;DHT22;51482;47.014;7.652;2024-01-06T11:50:31;6.20;99.90
64951;DHT22;51482;47.014;7.652;2024-01-06T11:52:58;6.20;99.90
64951;DHT22;51482;47.014;7.652;2024-01-06T11:55:25;6.60;99.90
64951;DHT22;51482;47.014;7.652;2024-01-06T11:57:53;5.70;99.90
64951;DHT22;51482;47.014;7.652;2024-01-06T12:00:19;6.20;99.90
64951;DHT22;51482;47.014;7.652;2024-01-06T12:02:45;6.30;99.90
64951;DHT22;51482;47.014;7.652;2024-01-06T12:05:17;6.30;99.90
64951;DHT22;51482;47.014;7.652;2024-01-06T12:07:52;6.40;99.90
64951;DHT22;51482;47.014;7.652;2024-01-06T12:10:20;6.70;99.90
64951;DHT22;51482;47.014;7.652;2024-01-06T12:13:01;6.50;99.90
64951;DHT22;51482;47.014;7.652;2024-01-06T12:15:28;6.20;99.90
64951;DHT22;51482;47.014;7.652;2024-01-06T12:17:54;6.80;99.90
64951;DHT22;51482;47.014;7.652;2024-01-06T12:20:21;5.80;99.90
64951;DHT22;51482;47.014;7.652;2024-01-06T12:22:47;6.80;99.90
64951;DHT22;51482;47.014;7.652;2024-01-06T12:25:14;6.70;99.90
64951;DHT22;51482;47.014;7.652;2024-01-06T12:27:48;6.20;99.90
64951;DHT22;51482;47.014;7.652;2024-01-06T12:30:15;6.40;99.90
64951;DHT22;51482;47.014;7.652;2024-01-06T12:32:45;6.40;99.90
64951;DHT22;51482;47.014;7.652;2024-01-06T12:35:12;6.90;99.90
64951;DHT22;51482;47.014;7.652;2024-01-06T12:37:38;6.40;99.90
64951;DHT22;51482;47.014;7.652;2024-01-06T12:40:04;6.90;99.90
64951;DHT22;51482;47.014;7.652;2024-01-06T12:42:30;6.30;99.90
64951;DHT22;51482;47.014;7.652;2024-01-06T12:44:56;6.40;99.90
64951;DHT22;51482;47.014;7.652;2024-01-06T12:47:22;6.20;99.90
64951;DHT22;51482;47.014;7.652;2024-01-06T12:49:48;6.20;99.90
64951;DHT22;51482;47.014;7.652;2024-01-06T12:52:13;6.20;99.90
64951;DHT22;51482;47.014;7.652;2024-01-06T12:54:39;6.30;99.90
64951;DHT22;51482;47.014;7.652;2024-01-06T12:57:07;6.30;99.90
64951;DHT22;51482;47.014;7.652;2024-01-06T12:59:33;6.90;99.90
64951;DHT22;51482;47.014;7.652;2024-01-06T13:01:58;6.80;99.90
64951;DHT22;51482;47.014;7.652;2024-01-06T13:04:24;6.60;99.90
64951;DHT22;51482;47.014;7.652;2024-01-06T13:06:50;7.00;99.90
64951;DHT22;51482;47.014;7.652;2024-01-06T13:09:16;6.90;99.90
64951;DHT22;51482;47.014;7.652;2024-01-06T13:11:42;6.10;99.90
64951;DHT22;51482;47.014;7.652;2024-01-06T13:14:08;6.30;99.90
64951;DHT22;51482;47.014;7.652;2024-01-06T13:16:33;5.90;99.90
64951;DHT22;51482;47.014;7.652;2024-01-06T13:19:00;6.40;99.90
64951;DHT22;51482;47.014;7.652;2024-01-06T13:21:25;6.80;99.90
64951;DHT22;51482;47.014;7.652;2024-01-06T13:23:51;6.40;99.90
64951;DHT22;51482;47.014;7.652;2024-01-06T13:26:17;7.10;99.90
64951;DHT22;51482;47.014;7.652;2024-01-06T13:28:42;7.00;99.90
64951;DHT22;51482;47.014;7.652;2024-01-06T13:31:08;6.90;99.90
64951;DHT22;51482;47.014;7.652;2024-01-06T13:33:35;6.80;99.90
64951;DHT22;51482;47.014;7.652;2024-01-06T13:36:00;6.90;99.90
64951;DHT22;51482;47.014;7.652;2024-01-06T13:38:26;6.90;99.90
64951;DHT22;51482;47.014;7.652;2024-01-06T13:40:52;6.50;99.90
64951;DHT22;51482;47.014;7.652;2024-01-06T13:43:18;7.00;99.90
64951;DHT22;51482;47.014;7.652;2024-01-06T13:45:44;6.70;99.90
64951;DHT22;51482;47.014;7.652;2024-01-06T13:48:10;6.80;99.90
64951;DHT22;51482;47.014;7.652;2024-01-06T13:50:36;6.30;99.90
64951;DHT22;51482;47.014;7.652;2024-01-06T13:53:01;6.20;99.90
64951;DHT22;51482;47.014;7.652;2024-01-06T13:55:28;5.80;99.90
64951;DHT22;51482;47.014;7.652;2024-01-06T13:57:54;6.60;99.90
64951;DHT22;51482;47.014;7.652;2024-01-06T14:00:20;6.60;99.90
64951;DHT22;51482;47.014;7.652;2024-01-06T14:02:46;6.30;99.90
64951;DHT22;51482;47.014;7.652;2024-01-06T14:05:14;6.30;99.90
64951;DHT22;51482;47.014;7.652;2024-01-06T14:07:40;6.70;99.90
64951;DHT22;51482;47.014;7.652;2024-01-06T14:10:11;6.40;99.90
64951;DHT22;51482;47.014;7.652;2024-01-06T14:12:36;6.80;99.90
64951;DHT22;51482;47.014;7.652;2024-01-06T14:15:02;6.20;99.90
64951;DHT22;51482;47.014;7.652;2024-01-06T14:17:28;6.20;99.90
64951;DHT22;51482;47.014;7.652;2024-01-06T14:19:54;6.20;99.90
64951;DHT22;51482;47.014;7.652;2024-01-06T14:22:19;6.10;99.90
64951;DHT22;51482;47.014;7.652;2024-01-06T14:24:45;5.60;99.90
64951;DHT22;51482;47.014;7.652;2024-01-06T14:27:10;6.40;99.90
64951;DHT22;51482;47.014;7.652;2024-01-06T14:29:36;6.60;99.90
64951;DHT22;51482;47.014;7.652;2024-01-06T14:32:03;6.00;99.90
64951;DHT22;51482;47.014;7.652;2024-01-06T14:34:29;6.00;99.90
64951;DHT22;51482;47.014;7.652;2024-01-06T14:36:54;6.10;99.90
64951;DHT22;51482;47.014;7.652;2024-01-06T14:39:20;6.80;99.90
64951;DHT22;51482;47.014;7.652;2024-01-06T14:41:49;6.10;99.90
64951;DHT22;51482;47.014;7.652;2024-01-06T14:44:15;6.30;99.90
64951;DHT22;51482;47.014;7.652;2024-01-06T14:46:41;6.10;99.90
64951;DHT22;51482;47.014;7.652;2024-01-06T14:49:07;6.70;99.90
64951;DHT22;51482;47.014;7.652;2024-01-06T14:51:33;6.60;99.90
64951;DHT22;51482;47.014;7.652;2024-01-06T14:53:58;6.80;99.90
64951;DHT22;51482;47.014;7.652;2024-01-06T14:56:24;6.40;99.90
64951;DHT22;51482;47.014;7.652;2024-01-06T14:58:50;6.40;99.90
64951;DHT22;51482;47.014;7.652;2024-01-06T15:01:15;5.90;99.90
64951;DHT22;51482;47.014;7.652;2024-01-06T15:03:41;6.30;99.90
64951;DHT22;51482;47.014;7.652;2024-01-06T15:06:07;6.30;99.90
64951;DHT22;51482;47.014;7.652;2024-01-06T15:08:33;5.80;99.90
64951;DHT22;51482;47.014;7.652;2024-01-06T15:10:58;5.50;99.90
64951;DHT22;51482;47.014;7.652;2024-01-06T15:13:24;5.70;99.90
64951;DHT22;51482;47.014;7.652;2024-01-06T15:15:49;5.50;99.90
64951;DHT22;51482;47.014;7.652;2024-01-06T15:18:18;6.40;99.90
64951;DHT22;51482;47.014;7.652;2024-01-06T15:20:47;6.30;99.90
64951;DHT22;51482;47.014;7.652;2024-01-06T15:23:13;6.20;99.90
64951;DHT22;51482;47.014;7.652;2024-01-06T15:25:38;6.00;99.90
64951;DHT22;51482;47.014;7.652;2024-01-06T15:28:04;6.20;99.90
64951;DHT22;51482;47.014;7.652;2024-01-06T15:30:29;5.70;99.90
64951;DHT22;51482;47.014;7.652;2024-01-06T15:32:55;6.30;99.90
64951;DHT22;51482;47.014;7.652;2024-01-06T15:35:20;5.70;99.90
64951;DHT22;51482;47.014;7.652;2024-01-06T15:37:46;6.20;99.90
64951;DHT22;51482;47.014;7.652;2024-01-06T15:40:12;5.60;99.90
64951;DHT22;51482;47.014;7.652;2024-01-06T15:42:38;5.70;99.90
64951;DHT22;51482;47.014;7.652;2024-01-06T15:45:04;5.50;99.90
64951;DHT22;51482;47.014;7.652;2024-01-06T15:47:30;5.40;99.90